Flight Track Log - Related Links

Times and Time Zones

All times are in EDT time to prevent confusion due to time zone crossing. See the ASA3454 flight status page for this flight to view local times or setup timezone preferences in your user account.

Time Position Orientation Groundspeed Altitude Reporting Facility
EDT Latitude Longitude Course Direction KTS MPH feet Rate Location/Type
Fri 03:54:46 PM 45.5978 -122.6056 292° West 164 189 700  Level Seattle Center
Fri 03:55:41 PM 45.6139 -122.6639 292° West 203 234 2,600 2,262 Climbing Seattle Center
Fri 03:56:48 PM 45.6453 -122.7561 296° West 243 280 5,300 2,182 Climbing Seattle Center
Fri 03:57:20 PM 45.6347 -122.7922 247° West 235 270 6,200 2,323 Climbing Seattle Center
Fri 03:58:21 PM 45.5683 -122.7781 172° South 264 304 8,900 2,361 Climbing Seattle Center
Fri 03:59:22 PM 45.5075 -122.7011 138° Southeast 288 331 11,000 2,066 Climbing Seattle Center
Fri 04:00:23 PM 45.4386 -122.6142 138° Southeast 322 371 13,100 2,016 Climbing Seattle Center
Fri 04:01:24 PM 45.3644 -122.5239 139° Southeast 344 396 15,100 1,967 Climbing Seattle Center
Fri 04:02:25 PM 45.2881 -122.4292 139° Southeast 359 413 17,100 1,623 Climbing Seattle Center
Fri 04:03:26 PM 45.2061 -122.3297 139° Southeast 381 438 18,400 1,721 Climbing Seattle Center
Fri 04:04:27 PM 45.1050 -122.2050 139° Southeast 397 457 20,600 1,918 Climbing Seattle Center
Fri 04:05:28 PM 45.0114 -122.1175 147° Southeast 403 464 22,300 1,574 Climbing Seattle Center
Fri 04:06:29 PM 44.9067 -122.0453 154° Southeast 414 476 23,800 1,328 Climbing Seattle Center
Fri 04:07:30 PM 44.8058 -121.9761 154° Southeast 418 481 25,000 1,082 Climbing Seattle Center
Fri 04:08:31 PM 44.6964 -121.8947 152° Southeast 426 490 26,000 934 Climbing Seattle Center
Fri 04:09:32 PM 44.6072 -121.7694 135° Southeast 452 520 26,900 934 Climbing Seattle Center
Fri 04:10:33 PM 44.5158 -121.6428 135° Southeast 462 532 27,900 836 Climbing Seattle Center
Fri 04:11:34 PM 44.4244 -121.5192 136° Southeast 470 541 28,600 885 Climbing Seattle Center
Fri 04:12:35 PM 44.2914 -121.4794 168° South 475 547 29,700 1,180 Climbing Seattle Center
Fri 04:13:36 PM 44.1614 -121.4561 173° South 473 544 31,000 1,230 Climbing Seattle Center
Fri 04:14:37 PM 44.0325 -121.4328 173° South 470 541 32,200 1,230 Climbing Seattle Center
Fri 04:15:38 PM 43.8797 -121.4053 173° South 464 534 33,500 984 Climbing Seattle Center
Fri 04:16:39 PM 43.7689 -121.3875 173° South 470 541 34,200 738 Climbing Seattle Center
Fri 04:17:40 PM 43.6392 -121.3639 172° South 470 541 35,000 836 Climbing Seattle Center
Fri 04:18:41 PM 43.4836 -121.3361 173° South 469 540 35,900 738 Climbing Seattle Center
Fri 04:19:42 PM 43.3522 -121.3128 173° South 477 549 36,500 541 Climbing Seattle Center
Fri 04:20:43 PM 43.2183 -121.2911 173° South 484 557 37,000 246 Climbing Seattle Center
Fri 04:21:44 PM 43.0819 -121.2686 173° South 491 565 37,000  Level Seattle Center
Fri 04:22:45 PM 42.9456 -121.2436 172° South 494 568 37,000  Level Seattle Center
Fri 04:23:46 PM 42.8092 -121.2200 173° South 494 568 37,000  Level Seattle Center
Fri 04:24:48 PM 42.6717 -121.1986 173° South 496 571 37,000  Level Seattle Center
Fri 04:25:49 PM 42.5336 -121.1739 172° South 497 572 37,000  Level Seattle Center
Fri 04:26:50 PM 42.3953 -121.1503 173° South 498 573 37,000  Level Seattle Center
Fri 04:27:51 PM 42.2567 -121.1267 173° South 499 574 37,000  Level Seattle Center
Fri 04:28:52 PM 42.1183 -121.1039 173° South 498 573 37,000  Level Seattle Center
Fri 04:29:53 PM 41.9806 -121.0794 172° South 497 572 37,000  Level Seattle Center
Fri 04:30:54 PM 41.8406 -121.0553 173° South 502 578 37,000  Level Seattle Center
Fri 04:31:55 PM 41.7000 -121.0308 173° South 505 581 37,000  Level Seattle Center
Fri 04:32:56 PM 41.5606 -121.0075 173° South 503 579 37,000  Level Seattle Center
Fri 04:33:57 PM 41.4206 -120.9850 173° South 505 581 37,000  Level Seattle Center
Fri 04:34:58 PM 41.2517 -120.9569 173° South 508 585 37,000  Level Seattle Center
Fri 04:36:00 PM 41.1111 -120.9350 173° South 508 585 37,000  Level Seattle Center
Fri 04:37:01 PM 40.9694 -120.9144 174° South 509 586 37,000  Level Seattle Center
Fri 04:38:02 PM 40.8294 -120.9011 176° South 503 579 37,000  Level Seattle Center
Fri 04:39:03 PM 40.6875 -120.8908 177° South 509 586 37,000  Level Seattle Center
Fri 04:40:04 PM 40.5494 -120.8811 177° South 510 587 37,000  Level Seattle Center
Fri 04:41:05 PM 40.4069 -120.8692 176° South 511 588 37,000  Level Seattle Center
Fri 04:42:06 PM 40.2647 -120.8567 176° South 510 587 37,000  Level Seattle Center
Fri 04:43:07 PM 40.1222 -120.8461 177° South 511 588 37,000  Level Seattle Center
Fri 04:44:22 PM 39.9211 -120.8300 176° South 514 592 37,000  Level Oakland Center
Fri 04:45:24 PM 39.7783 -120.8206 177° South 514 592 37,000  Level Oakland Center
Fri 04:46:25 PM 39.6356 -120.8106 177° South 513 590 37,000  Level Oakland Center
Fri 04:47:27 PM 39.4914 -120.7964 176° South 515 593 37,000  Level Oakland Center
Fri 04:48:28 PM 39.3478 -120.7853 177° South 514 592 37,000  Level Oakland Center
Fri 04:49:30 PM 39.2036 -120.7744 177° South 517 595 37,000  Level Oakland Center
Fri 04:50:32 PM 39.0597 -120.7650 177° South 517 595 37,000  Level Oakland Center
Fri 04:51:33 PM 38.9167 -120.7533 176° South 513 590 37,000  Level Oakland Center
Fri 04:52:35 PM 38.7736 -120.7417 176° South 511 588 37,000  Level Oakland Center
Fri 04:53:36 PM 38.6289 -120.7319 177° South 515 593 37,000  Level Oakland Center
Fri 04:54:38 PM 38.4567 -120.7186 177° South 512 589 37,000  Level Oakland Center
Fri 04:55:39 PM 38.3125 -120.7078 177° South 513 590 37,000  Level Oakland Center
Fri 04:56:41 PM 38.1692 -120.6978 177° South 512 589 37,000  Level Oakland Center
Fri 04:57:42 PM 38.0258 -120.6864 176° South 513 590 37,000  Level Oakland Center
Fri 04:58:44 PM 37.8833 -120.6758 177° South 512 589 37,000  Level Oakland Center
Fri 04:59:45 PM 37.7403 -120.6664 177° South 512 589 37,000  Level Oakland Center
Fri 05:00:47 PM 37.5953 -120.6558 177° South 516 594 37,000  Level Oakland Center
Fri 05:01:48 PM 37.4511 -120.6447 176° South 519 597 37,000  Level Oakland Center
Fri 05:02:50 PM 37.3053 -120.6267 174° South 540 621 37,000  Level Oakland Center
Fri 05:03:51 PM 37.1653 -120.5747 164° South 517 595 37,000 -49 Level Oakland Center
Fri 05:04:52 PM 37.0006 -120.5067 162° South 519 597 36,900 -488 Descending Oakland Center
Fri 05:05:54 PM 36.8669 -120.4383 158° South 522 601 36,000 -927 Descending Oakland Center
Fri 05:06:55 PM 36.7433 -120.3742 157° South 533 613 35,000 -976 Descending Oakland Center
Fri 05:07:57 PM 36.6142 -120.3075 157° South 496 571 34,000 -976 Descending Oakland Center
Fri 05:08:58 PM 36.4911 -120.2461 158° South 469 540 33,000 -976 Descending Oakland Center
Fri 05:10:00 PM 36.3611 -120.1803 158° South 501 577 32,000 -976 Descending Oakland Center
Fri 05:11:01 PM 36.2322 -120.1164 158° South 500 575 31,000 -488 Descending Oakland Center
Fri 05:12:03 PM 36.0750 -120.0389 158° South 505 581 31,000  Level Oakland Center
Fri 05:13:04 PM 35.9442 -119.9786 160° South 500 575 31,000  Level Oakland Center
Fri 05:14:06 PM 35.8100 -119.9114 158° South 513 590 31,000  Level Oakland Center
Fri 05:15:07 PM 35.6744 -119.8453 158° South 519 597 31,000  Level Oakland Center
Fri 05:16:09 PM 35.5383 -119.7792 158° South 519 597 31,000 -439 Level Oakland Center
Fri 05:17:10 PM 35.4017 -119.7133 159° South 523 602 30,100 -1,673 Descending Oakland Center
Fri 05:17:53 PM 35.2964 -119.6622 158° South 512 589 28,100 -2,571 Descending Los Angeles Center
Fri 05:18:55 PM 35.1836 -119.5781 149° Southeast 480 552 25,600 -2,592 Descending Los Angeles Center
Fri 05:19:58 PM 35.0783 -119.4900 146° Southeast 461 531 22,700 -2,784 Descending Los Angeles Center
Fri 05:21:00 PM 34.9767 -119.4044 145° Southeast 446 513 19,800 -2,661 Descending Los Angeles Center
Fri 05:22:02 PM 34.8817 -119.3231 145° Southeast 425 489 17,200 -2,371 Descending Los Angeles Center
Fri 05:23:04 PM 34.7911 -119.2464 145° Southeast 400 460 14,900 -2,226 Descending Los Angeles Center
Fri 05:24:06 PM 34.6889 -119.1586 145° Southeast 378 435 12,600 -1,839 Descending Los Angeles Center
Fri 05:25:08 PM 34.6119 -119.0967 146° Southeast 369 425 11,100 -774 Descending Los Angeles Center
Fri 05:26:10 PM 34.5392 -119.0356 145° Southeast 310 357 11,000 -48 Descending Los Angeles Center
Fri 05:27:12 PM 34.4572 -118.9650 145° Southeast 299 344 11,000 -871 Level Los Angeles Center
Fri 05:28:14 PM 34.3967 -118.8997 138° Southeast 290 334 9,200 -1,742 Descending Los Angeles Center
Fri 05:29:16 PM 34.3450 -118.8253 130° Southeast 287 330 7,400 -1,694 Descending Los Angeles Center
Fri 05:30:18 PM 34.2978 -118.7556 129° Southeast 270 311 5,700 -1,536 Descending Los Angeles Center
Fri 05:31:21 PM 34.2506 -118.6853 129° Southeast 268 308 4,200 -960 Descending Los Angeles Center
Fri 05:32:23 PM 34.2072 -118.6206 129° Southeast 254 292 3,700 -750 Descending Los Angeles Center
Fri 05:32:49 PM 34.2000 -118.5667 99° East 256 295 3,100 -628 Descending Southern California TRACON
Fri 05:33:49 PM 34.2000 -118.4833 90° East 213 245 2,800 -600 Descending Southern California TRACON
Fri 05:34:49 PM 34.2000 -118.4333 90° East 151 174 1,900 -850 Descending Southern California TRACON
Fri 05:35:49 PM 34.2000 -118.3833 90° East 131 151 1,100 -353 Descending Southern California TRACON
Fri 05:36:31 PM 34.1992 -118.3586 92° East 160 184 1,300 286 Climbing Los Angeles Center
Fri 05:38:00 PM 34.2000 -118.3500 140° Southeast  Level FlightAware Approximate

Login

Don't have an account? Register now (free) for customized features, flight alerts, and more!